createdAt,value
2022-12-14T00:01:38.210Z,17.67
2022-12-14T00:04:05.348Z,18.30
2022-12-14T00:06:33.108Z,17.20
2022-12-14T00:09:02.702Z,18.15
2022-12-14T00:11:30.314Z,15.65
2022-12-14T00:14:02.866Z,12.90
2022-12-14T00:16:32.105Z,14.10
2022-12-14T00:19:00.779Z,12.43
2022-12-14T00:21:28.442Z,13.98
2022-12-14T00:23:57.434Z,13.05
2022-12-14T00:26:27.399Z,13.10
2022-12-14T00:28:55.813Z,13.02
2022-12-14T00:31:24.022Z,13.40
2022-12-14T00:33:51.417Z,14.18
2022-12-14T00:36:18.786Z,12.65
2022-12-14T00:38:45.845Z,13.27
2022-12-14T00:41:12.789Z,13.93
2022-12-14T00:43:40.174Z,14.23
2022-12-14T00:46:07.565Z,14.30
2022-12-14T00:48:35.804Z,13.40
2022-12-14T00:51:02.961Z,13.52
2022-12-14T00:53:29.919Z,13.95
2022-12-14T00:55:57.418Z,13.73
2022-12-14T00:58:25.589Z,13.18
2022-12-14T01:01:01.385Z,13.25
2022-12-14T01:03:29.839Z,13.80
2022-12-14T01:05:57.468Z,12.98
2022-12-14T01:08:25.079Z,12.85
2022-12-14T01:10:52.574Z,12.60
2022-12-14T01:13:19.633Z,12.45
2022-12-14T01:15:46.979Z,13.07
2022-12-14T01:18:14.180Z,12.52
2022-12-14T01:20:41.081Z,12.05
2022-12-14T01:23:08.187Z,13.60
2022-12-14T01:25:36.032Z,12.13
2022-12-14T01:28:03.447Z,11.88
2022-12-14T01:30:30.652Z,12.45
2022-12-14T01:32:57.610Z,11.90
2022-12-14T01:35:24.559Z,10.65
2022-12-14T01:37:51.504Z,11.38
2022-12-14T01:40:18.514Z,11.48
2022-12-14T01:42:45.593Z,10.75
2022-12-14T01:45:19.769Z,12.13
2022-12-14T01:47:51.408Z,10.73
2022-12-14T01:50:28.830Z,12.38
2022-12-14T01:53:09.385Z,11.75
2022-12-14T01:55:41.177Z,11.07
2022-12-14T01:58:23.185Z,10.85
2022-12-14T02:00:58.316Z,11.05
2022-12-14T02:03:29.716Z,11.40
2022-12-14T02:06:04.240Z,10.90
2022-12-14T02:08:32.146Z,10.48
2022-12-14T02:11:01.185Z,11.32
2022-12-14T02:13:34.191Z,10.48
2022-12-14T02:16:01.487Z,10.40
2022-12-14T02:18:31.320Z,9.40
2022-12-14T02:21:19.089Z,11.30
2022-12-14T02:24:19.213Z,9.88
2022-12-14T02:27:14.296Z,9.80
2022-12-14T02:30:07.197Z,9.95
2022-12-14T02:32:56.042Z,10.05
2022-12-14T02:35:41.790Z,10.65
2022-12-14T02:38:36.201Z,10.57
2022-12-14T02:43:30.275Z,10.15
2022-12-14T02:46:27.083Z,10.50
2022-12-14T02:49:27.920Z,11.02
2022-12-14T02:52:30.172Z,10.13
2022-12-14T02:55:21.437Z,9.55
2022-12-14T02:58:16.111Z,9.27
2022-12-14T03:00:44.059Z,9.48
2022-12-14T03:03:11.151Z,10.05
2022-12-14T03:05:38.144Z,9.48
2022-12-14T03:08:16.720Z,10.82
2022-12-14T03:11:02.312Z,10.35
2022-12-14T03:13:31.866Z,11.95
2022-12-14T03:16:17.084Z,10.77
2022-12-14T03:19:17.486Z,12.63
2022-12-14T03:21:50.162Z,11.13
2022-12-14T03:24:24.278Z,12.05
2022-12-14T03:27:20.418Z,12.63
2022-12-14T03:29:56.192Z,16.63
2022-12-14T03:32:26.801Z,18.10
2022-12-14T03:35:01.560Z,19.88
2022-12-14T03:37:54.828Z,21.40
2022-12-14T03:40:43.291Z,23.02
2022-12-14T03:43:18.726Z,23.02
2022-12-14T03:45:57.295Z,21.13
2022-12-14T03:48:29.884Z,18.60
2022-12-14T03:51:03.227Z,17.75
2022-12-14T03:53:33.301Z,17.95
2022-12-14T03:56:16.340Z,16.70
2022-12-14T03:58:57.278Z,16.15
2022-12-14T04:01:39.923Z,16.40
2022-12-14T04:04:30.379Z,15.95
2022-12-14T04:07:15.720Z,17.45
2022-12-14T04:09:56.501Z,16.48
2022-12-14T04:12:58.717Z,16.10
2022-12-14T04:15:49.699Z,15.25
2022-12-14T04:18:45.328Z,14.50
2022-12-14T04:21:19.665Z,14.68
2022-12-14T04:24:08.859Z,15.57
2022-12-14T04:26:40.450Z,15.43
2022-12-14T04:29:35.545Z,16.80
2022-12-14T04:32:19.487Z,17.15
2022-12-14T04:37:18.802Z,16.05
2022-12-14T04:39:51.659Z,16.73
2022-12-14T04:42:23.580Z,17.92
2022-12-14T04:44:55.371Z,17.90
2022-12-14T04:47:30.502Z,17.38
2022-12-14T04:50:08.268Z,17.05
2022-12-14T04:52:45.394Z,18.08
2022-12-14T04:55:40.968Z,17.80
2022-12-14T04:58:08.120Z,18.05
2022-12-14T05:00:39.306Z,17.77
2022-12-14T05:03:28.669Z,17.25
2022-12-14T05:06:16.998Z,18.63
2022-12-14T05:08:53.656Z,17.17
2022-12-14T05:11:56.081Z,17.02
2022-12-14T05:14:36.498Z,18.83
2022-12-14T05:17:08.774Z,17.27
2022-12-14T05:19:37.278Z,16.58
2022-12-14T05:22:08.298Z,16.48
2022-12-14T05:24:35.423Z,15.02
2022-12-14T05:27:02.476Z,15.05
2022-12-14T05:29:29.658Z,17.05
2022-12-14T05:31:56.686Z,20.42
2022-12-14T05:34:23.824Z,24.33
2022-12-14T05:36:50.814Z,18.75
2022-12-14T05:39:17.768Z,17.05
2022-12-14T05:41:45.817Z,16.00
2022-12-14T05:44:13.635Z,16.90
2022-12-14T05:46:40.744Z,17.27
2022-12-14T05:49:08.002Z,16.10
2022-12-14T05:51:35.000Z,17.13
2022-12-14T05:54:02.068Z,16.38
2022-12-14T05:56:28.990Z,16.38
2022-12-14T05:58:55.905Z,16.50
2022-12-14T06:01:22.936Z,17.48
2022-12-14T06:03:52.619Z,16.50
2022-12-14T06:06:19.630Z,18.33
2022-12-14T06:08:47.030Z,18.73
2022-12-14T06:11:23.897Z,18.65
2022-12-14T06:13:51.302Z,18.10
2022-12-14T06:16:20.180Z,17.70
2022-12-14T06:18:52.402Z,17.58
2022-12-14T06:21:22.439Z,17.70
2022-12-14T06:23:49.351Z,17.20
2022-12-14T06:26:16.812Z,17.48
2022-12-14T06:28:44.450Z,17.55
2022-12-14T06:31:16.832Z,19.83
2022-12-14T06:33:44.076Z,19.40
2022-12-14T06:36:19.507Z,18.02
2022-12-14T06:38:46.658Z,17.63
2022-12-14T06:41:13.876Z,18.67
2022-12-14T06:43:40.806Z,17.80
2022-12-14T06:46:14.831Z,18.38
2022-12-14T06:48:44.271Z,19.92
2022-12-14T06:51:11.606Z,20.85
2022-12-14T06:53:38.553Z,19.73
2022-12-14T06:56:16.231Z,20.20
2022-12-14T06:58:43.725Z,20.38
2022-12-14T07:01:17.494Z,19.38
2022-12-14T07:03:48.676Z,21.05
2022-12-14T07:06:15.894Z,18.75
2022-12-14T07:08:43.064Z,20.80
2022-12-14T07:11:14.661Z,19.27
2022-12-14T07:13:42.250Z,21.20
2022-12-14T07:16:21.692Z,19.90
2022-12-14T07:18:49.845Z,18.73
2022-12-14T07:21:19.103Z,21.73
2022-12-14T07:23:47.531Z,19.50
2022-12-14T07:26:18.574Z,20.27
2022-12-14T07:28:46.633Z,18.55
2022-12-14T07:31:22.323Z,20.52
2022-12-14T07:33:52.050Z,25.75
2022-12-14T07:36:21.010Z,20.77
2022-12-14T07:38:49.916Z,23.05
2022-12-14T07:41:23.310Z,21.17
2022-12-14T07:43:51.952Z,23.02
2022-12-14T07:46:22.105Z,22.38
2022-12-14T07:48:57.593Z,21.05
2022-12-14T07:51:36.707Z,21.42
2022-12-14T07:54:05.708Z,21.48
2022-12-14T07:56:35.930Z,20.80
2022-12-14T07:59:04.717Z,21.17
2022-12-14T08:01:34.240Z,20.98
2022-12-14T08:04:06.626Z,20.20
2022-12-14T08:06:34.455Z,20.85
2022-12-14T08:09:01.555Z,21.23
2022-12-14T08:11:29.130Z,23.80
2022-12-14T08:14:00.612Z,22.00
2022-12-14T08:16:28.727Z,22.00
2022-12-14T08:18:57.169Z,23.48
2022-12-14T08:21:25.843Z,22.90
2022-12-14T08:23:54.527Z,21.88
2022-12-14T08:26:22.530Z,21.15
2022-12-14T08:28:49.648Z,21.08
2022-12-14T08:31:19.774Z,22.27
2022-12-14T08:33:47.588Z,21.90
2022-12-14T08:36:17.643Z,21.52
2022-12-14T08:38:44.670Z,22.98
2022-12-14T08:41:15.768Z,22.38
2022-12-14T08:43:54.861Z,24.08
2022-12-14T08:46:23.185Z,24.85
2022-12-14T08:48:52.454Z,23.50
2022-12-14T08:51:20.518Z,24.02
2022-12-14T08:53:48.499Z,23.75
2022-12-14T08:56:18.149Z,23.40
2022-12-14T08:58:45.321Z,22.08
2022-12-14T09:01:15.913Z,22.88
2022-12-14T09:03:47.076Z,23.58
2022-12-14T09:06:16.811Z,23.45
2022-12-14T09:08:44.262Z,23.85
2022-12-14T09:11:13.775Z,22.65
2022-12-14T09:13:41.796Z,23.80
2022-12-14T09:16:12.658Z,23.92
2022-12-14T09:18:39.884Z,23.80
2022-12-14T09:21:07.785Z,25.15
2022-12-14T09:23:36.002Z,23.27
2022-12-14T09:26:04.882Z,22.45
2022-12-14T09:28:33.880Z,23.10
2022-12-14T09:31:05.517Z,21.90
2022-12-14T09:33:33.507Z,23.83
2022-12-14T09:36:02.046Z,22.63
2022-12-14T09:38:33.967Z,25.98
2022-12-14T09:41:07.241Z,24.98
2022-12-14T09:43:47.141Z,23.50
2022-12-14T09:46:39.956Z,24.10
2022-12-14T09:49:22.707Z,21.00
2022-12-14T09:51:50.343Z,22.73
2022-12-14T09:54:21.240Z,21.98
2022-12-14T09:56:48.471Z,22.52
2022-12-14T09:59:17.759Z,24.65
2022-12-14T10:02:34.445Z,21.05
2022-12-14T10:05:29.435Z,22.15
2022-12-14T10:08:02.782Z,22.92
2022-12-14T10:10:59.975Z,21.63
2022-12-14T10:13:54.871Z,21.40
2022-12-14T10:16:33.646Z,22.55
2022-12-14T10:19:10.330Z,20.73
2022-12-14T10:22:19.761Z,21.17
2022-12-14T10:24:51.049Z,21.02
2022-12-14T10:27:27.364Z,21.95
2022-12-14T10:29:57.035Z,23.63
2022-12-14T10:32:35.280Z,24.38
2022-12-14T10:35:40.475Z,23.55
2022-12-14T10:38:23.787Z,25.70
2022-12-14T10:43:34.684Z,23.05
2022-12-14T10:46:20.270Z,23.25
2022-12-14T10:49:02.554Z,24.30
2022-12-14T10:51:44.980Z,24.38
2022-12-14T10:54:25.543Z,23.52
2022-12-14T10:56:52.832Z,24.08
2022-12-14T10:59:23.582Z,24.27
2022-12-14T11:01:55.096Z,23.23
2022-12-14T11:04:47.314Z,21.75
2022-12-14T11:07:16.383Z,22.00
2022-12-14T11:09:44.088Z,23.55
2022-12-14T11:12:14.063Z,21.75
2022-12-14T11:15:03.146Z,21.67
2022-12-14T11:17:35.360Z,19.63
2022-12-14T11:20:05.592Z,19.63
2022-12-14T11:22:48.373Z,19.75
2022-12-14T11:25:27.456Z,16.85
2022-12-14T11:27:54.696Z,17.52
2022-12-14T11:30:21.725Z,18.20
2022-12-14T11:32:52.081Z,17.27
2022-12-14T11:35:20.269Z,17.17
2022-12-14T11:37:51.128Z,15.77
2022-12-14T11:40:25.366Z,14.85
2022-12-14T11:43:00.025Z,16.60
2022-12-14T11:45:26.939Z,14.52
2022-12-14T11:48:15.768Z,13.27
2022-12-14T11:50:43.892Z,14.10
2022-12-14T11:53:14.544Z,14.48
2022-12-14T11:55:48.568Z,13.90
2022-12-14T11:58:27.535Z,12.73
2022-12-14T12:01:11.025Z,11.18
2022-12-14T12:03:50.401Z,9.30
2022-12-14T12:06:26.105Z,8.52
2022-12-14T12:09:02.700Z,9.98
2022-12-14T12:11:34.762Z,9.32
2022-12-14T12:14:13.185Z,9.40
2022-12-14T12:16:44.064Z,11.55
2022-12-14T12:19:23.063Z,10.65
2022-12-14T12:21:53.074Z,10.48
2022-12-14T12:24:19.964Z,11.05
2022-12-14T12:26:58.694Z,10.68
2022-12-14T12:29:48.152Z,12.23
2022-12-14T12:32:26.698Z,14.70
2022-12-14T12:35:04.145Z,14.77
2022-12-14T12:37:45.766Z,14.70
2022-12-14T12:40:24.248Z,18.83
2022-12-14T12:43:00.060Z,18.02
2022-12-14T12:45:36.033Z,21.20
2022-12-14T12:48:10.628Z,19.30
2022-12-14T12:50:43.754Z,19.92
2022-12-14T12:53:22.670Z,21.23
2022-12-14T12:55:53.652Z,20.33
2022-12-14T12:58:24.926Z,19.73
2022-12-14T13:00:55.682Z,19.75
2022-12-14T13:03:32.426Z,21.23
2022-12-14T13:06:24.909Z,23.35
2022-12-14T13:09:01.172Z,27.75
2022-12-14T13:11:37.511Z,28.98
2022-12-14T13:14:27.405Z,27.75
2022-12-14T13:16:55.474Z,28.83
2022-12-14T13:19:51.191Z,29.27
2022-12-14T13:22:26.345Z,28.88
2022-12-14T13:24:59.244Z,27.83
2022-12-14T13:28:15.416Z,24.23
2022-12-14T13:31:16.437Z,26.30
2022-12-14T13:33:52.538Z,24.65
2022-12-14T13:36:41.490Z,25.13
2022-12-14T13:39:45.704Z,25.38
2022-12-14T13:42:42.780Z,24.10
2022-12-14T13:45:22.260Z,23.67
2022-12-14T13:47:54.628Z,24.50
2022-12-14T13:50:52.935Z,23.58
2022-12-14T13:53:42.434Z,23.63
2022-12-14T13:56:10.122Z,21.85
2022-12-14T13:58:44.595Z,23.13
2022-12-14T14:01:35.795Z,20.52
2022-12-14T14:04:15.092Z,19.42
2022-12-14T14:06:43.813Z,18.95
2022-12-14T14:09:26.106Z,18.42
2022-12-14T14:12:33.555Z,19.00
2022-12-14T14:15:26.210Z,18.88
2022-12-14T14:17:54.927Z,18.80
2022-12-14T14:21:12.704Z,17.70
2022-12-14T14:23:57.783Z,18.88
2022-12-14T14:26:27.626Z,16.00
2022-12-14T14:29:26.973Z,17.05
2022-12-14T14:32:02.768Z,17.17
2022-12-14T14:34:44.089Z,17.25
2022-12-14T14:37:20.255Z,18.25
2022-12-14T14:40:07.646Z,18.60
2022-12-14T14:43:00.025Z,16.23
2022-12-14T14:45:32.671Z,17.35
2022-12-14T14:48:02.342Z,17.90
2022-12-14T14:50:37.059Z,20.13
2022-12-14T14:53:33.101Z,19.77
2022-12-14T14:56:04.905Z,20.80
2022-12-14T14:58:39.874Z,21.95
2022-12-14T15:01:06.884Z,19.75
2022-12-14T15:03:51.838Z,18.08
2022-12-14T15:06:42.891Z,18.88
2022-12-14T15:09:09.757Z,21.67
2022-12-14T15:11:45.675Z,20.58
2022-12-14T15:14:34.976Z,20.08
2022-12-14T15:17:21.716Z,17.10
2022-12-14T15:19:59.298Z,18.10
2022-12-14T15:22:31.719Z,18.00
2022-12-14T15:25:01.388Z,18.85
2022-12-14T15:27:36.775Z,18.73
2022-12-14T15:30:19.278Z,24.02
2022-12-14T15:32:53.299Z,19.15
2022-12-14T15:35:31.739Z,18.33
2022-12-14T15:38:02.750Z,19.45
2022-12-14T15:40:31.083Z,19.83
2022-12-14T15:43:00.652Z,21.00
2022-12-14T15:45:34.605Z,48.35
2022-12-14T15:48:16.932Z,39.22
2022-12-14T15:50:46.157Z,20.20
2022-12-14T15:53:32.882Z,19.85
2022-12-14T15:56:09.971Z,22.13
2022-12-14T15:58:40.804Z,21.10
2022-12-14T16:01:29.676Z,25.90
2022-12-14T16:04:00.964Z,29.50
2022-12-14T16:06:30.317Z,29.73
2022-12-14T16:09:03.969Z,25.45
2022-12-14T16:11:37.039Z,23.65
2022-12-14T16:14:30.185Z,20.23
2022-12-14T16:16:57.838Z,19.48
2022-12-14T16:19:29.936Z,21.85
2022-12-14T16:22:18.293Z,19.17
2022-12-14T16:25:06.072Z,18.98
2022-12-14T16:27:37.957Z,19.70
2022-12-14T16:30:22.233Z,19.65
2022-12-14T16:32:53.073Z,21.00
2022-12-14T16:35:26.361Z,19.65
2022-12-14T16:37:55.818Z,22.67
2022-12-14T16:40:36.107Z,23.05
2022-12-14T16:43:04.666Z,24.33
2022-12-14T16:45:43.401Z,23.67
2022-12-14T16:48:21.218Z,22.27
2022-12-14T16:50:56.945Z,23.30
2022-12-14T16:53:29.572Z,22.00
2022-12-14T16:56:14.571Z,21.25
2022-12-14T16:58:50.607Z,20.85
2022-12-14T17:01:17.689Z,22.25
2022-12-14T17:03:52.228Z,22.20
2022-12-14T17:06:29.586Z,22.75
2022-12-14T17:08:56.507Z,24.63
2022-12-14T17:11:23.467Z,23.55
2022-12-14T17:13:50.387Z,23.48
2022-12-14T17:16:23.770Z,25.60
2022-12-14T17:18:50.999Z,27.60
2022-12-14T17:21:27.292Z,28.05
2022-12-14T17:23:56.157Z,27.55
2022-12-14T17:26:27.198Z,28.75
2022-12-14T17:28:54.798Z,26.80
2022-12-14T17:31:25.035Z,24.40
2022-12-14T17:33:54.225Z,28.02
2022-12-14T17:36:23.814Z,27.30
2022-12-14T17:38:50.760Z,26.35
2022-12-14T17:41:25.423Z,26.08
2022-12-14T17:43:57.125Z,27.15
2022-12-14T17:46:25.359Z,26.55
2022-12-14T17:48:52.456Z,26.40
2022-12-14T17:51:27.583Z,30.02
2022-12-14T17:53:56.680Z,27.40
2022-12-14T17:56:23.918Z,27.20
2022-12-14T17:58:51.112Z,28.08
2022-12-14T18:01:23.947Z,25.88
2022-12-14T18:03:51.431Z,26.27
2022-12-14T18:06:18.902Z,25.83
2022-12-14T18:08:46.894Z,26.63
2022-12-14T18:11:18.272Z,29.30
2022-12-14T18:13:45.405Z,26.70
2022-12-14T18:16:17.062Z,25.60
2022-12-14T18:18:45.955Z,27.63
2022-12-14T18:21:22.227Z,27.95
2022-12-14T18:23:50.345Z,26.20
2022-12-14T18:26:20.935Z,25.63
2022-12-14T18:28:49.847Z,25.83
2022-12-14T18:31:37.982Z,27.55
2022-12-14T18:34:05.366Z,28.05
2022-12-14T18:36:32.824Z,25.98
2022-12-14T18:38:59.811Z,26.25
2022-12-14T18:41:28.248Z,25.42
2022-12-14T18:43:55.937Z,27.25
2022-12-14T18:46:23.599Z,25.90
2022-12-14T18:48:50.670Z,29.02
2022-12-14T18:51:23.531Z,27.27
2022-12-14T18:53:51.126Z,23.23
2022-12-14T18:56:19.103Z,26.75
2022-12-14T18:58:46.510Z,27.40
2022-12-14T19:01:16.243Z,27.60
2022-12-14T19:03:45.158Z,28.75
2022-12-14T19:09:06.978Z,26.02
2022-12-14T19:11:39.511Z,27.10
2022-12-14T19:14:06.917Z,26.55
2022-12-14T19:16:34.111Z,26.15
2022-12-14T19:19:01.103Z,25.23
2022-12-14T19:21:29.702Z,25.33
2022-12-14T19:23:57.357Z,21.38
2022-12-14T19:26:24.338Z,21.20
2022-12-14T19:28:51.254Z,20.55
2022-12-14T19:31:18.262Z,23.35
2022-12-14T19:33:45.274Z,24.55
2022-12-14T19:36:12.359Z,23.48
2022-12-14T19:38:39.268Z,25.70
2022-12-14T19:41:11.923Z,27.25
2022-12-14T19:43:39.225Z,25.98
2022-12-14T19:46:11.008Z,27.42
2022-12-14T19:48:57.509Z,25.70
2022-12-14T19:51:24.503Z,26.65
2022-12-14T19:53:52.877Z,24.90
2022-12-14T19:56:20.111Z,27.75
2022-12-14T19:58:47.851Z,27.05
2022-12-14T20:01:17.582Z,29.08
2022-12-14T20:03:44.891Z,23.83
2022-12-14T20:06:31.868Z,23.05
2022-12-14T20:09:00.475Z,25.88
2022-12-14T20:11:27.782Z,21.85
2022-12-14T20:13:58.962Z,22.23
2022-12-14T20:16:29.446Z,22.65
2022-12-14T20:18:57.741Z,23.10
2022-12-14T20:21:27.222Z,22.88
2022-12-14T20:23:54.145Z,19.35
2022-12-14T20:26:22.709Z,19.83
2022-12-14T20:28:55.973Z,18.20
2022-12-14T20:31:23.468Z,18.55
2022-12-14T20:33:50.575Z,18.83
2022-12-14T20:36:18.895Z,17.45
2022-12-14T20:38:46.424Z,16.85
2022-12-14T20:41:18.359Z,17.15
2022-12-14T20:43:45.654Z,18.48
2022-12-14T20:46:26.775Z,23.90
2022-12-14T20:48:53.954Z,18.23
2022-12-14T20:51:21.166Z,26.10
2022-12-14T20:53:49.280Z,19.35
2022-12-14T20:56:16.770Z,15.07
2022-12-14T20:58:48.406Z,17.42
2022-12-14T21:01:17.094Z,18.67
2022-12-14T21:03:46.802Z,23.10
2022-12-14T21:06:20.474Z,19.25
2022-12-14T21:09:05.293Z,20.25
2022-12-14T21:11:53.891Z,17.17
2022-12-14T21:14:22.880Z,15.55
2022-12-14T21:16:50.381Z,17.20
2022-12-14T21:19:17.462Z,15.70
2022-12-14T21:21:49.942Z,15.07
2022-12-14T21:24:44.752Z,14.23
2022-12-14T21:27:14.807Z,17.67
2022-12-14T21:29:41.728Z,15.77
2022-12-14T21:32:08.746Z,14.80
2022-12-14T21:34:35.776Z,14.80
2022-12-14T21:37:02.786Z,14.70
2022-12-14T21:39:29.726Z,15.80
2022-12-14T21:42:15.750Z,16.65
2022-12-14T21:44:47.861Z,12.43
2022-12-14T21:47:27.922Z,13.32
2022-12-14T21:49:55.306Z,12.20
2022-12-14T21:52:24.622Z,11.95
2022-12-14T21:54:51.724Z,12.50
2022-12-14T21:57:50.582Z,12.35
2022-12-14T22:00:17.920Z,11.93
2022-12-14T22:02:45.000Z,11.77
2022-12-14T22:05:12.137Z,10.73
2022-12-14T22:07:39.080Z,11.00
2022-12-14T22:10:06.461Z,9.60
2022-12-14T22:12:33.462Z,10.57
2022-12-14T22:15:00.551Z,10.07
2022-12-14T22:17:28.277Z,10.00
2022-12-14T22:19:55.475Z,10.35
2022-12-14T22:22:23.052Z,8.80
2022-12-14T22:24:51.256Z,9.63
2022-12-14T22:27:19.011Z,9.13
2022-12-14T22:29:45.967Z,9.60
2022-12-14T22:32:13.187Z,9.48
2022-12-14T22:34:40.584Z,11.02
2022-12-14T22:37:07.585Z,10.00
2022-12-14T22:39:34.534Z,11.13
2022-12-14T22:42:01.482Z,9.43
2022-12-14T22:44:28.487Z,9.60
2022-12-14T22:46:55.419Z,10.23
2022-12-14T22:49:22.437Z,11.20
2022-12-14T22:51:50.445Z,9.40
2022-12-14T22:54:26.792Z,9.88
2022-12-14T22:57:15.459Z,10.43
2022-12-14T23:00:00.629Z,9.45
2022-12-14T23:02:29.918Z,8.50
2022-12-14T23:04:57.359Z,8.55
2022-12-14T23:07:24.341Z,7.45
2022-12-14T23:10:10.043Z,8.32
2022-12-14T23:12:55.352Z,7.95
2022-12-14T23:15:40.858Z,6.90
2022-12-14T23:18:26.533Z,6.57
2022-12-14T23:21:12.930Z,7.07
2022-12-14T23:23:59.676Z,7.07
2022-12-14T23:26:45.322Z,7.72
2022-12-14T23:29:31.199Z,7.55
2022-12-14T23:32:16.963Z,6.95
2022-12-14T23:35:02.315Z,7.25
2022-12-14T23:37:47.710Z,5.75
2022-12-14T23:40:33.136Z,6.95
2022-12-14T23:43:44.079Z,7.95
2022-12-14T23:46:29.455Z,6.65
2022-12-14T23:49:16.222Z,6.20
2022-12-14T23:52:02.105Z,6.82
2022-12-14T23:54:47.419Z,5.90
2022-12-14T23:57:33.270Z,6.20
